sensor_id;sensor_type;location;lat;lon;timestamp;temperature;humidity
10980;DHT22;5543;51.734;8.744;2022-07-09T00:01:47;15.50;99.90
10980;DHT22;5543;51.734;8.744;2022-07-09T00:04:15;15.50;99.90
10980;DHT22;5543;51.734;8.744;2022-07-09T00:06:45;15.50;99.90
10980;DHT22;5543;51.734;8.744;2022-07-09T00:09:13;15.50;99.90
10980;DHT22;5543;51.734;8.744;2022-07-09T00:11:41;15.50;99.90
10980;DHT22;5543;51.734;8.744;2022-07-09T00:14:09;15.60;99.90
10980;DHT22;5543;51.734;8.744;2022-07-09T00:16:37;15.60;99.90
10980;DHT22;5543;51.734;8.744;2022-07-09T00:19:06;15.60;99.90
10980;DHT22;5543;51.734;8.744;2022-07-09T00:21:34;15.70;99.90
10980;DHT22;5543;51.734;8.744;2022-07-09T00:24:04;15.70;99.90
10980;DHT22;5543;51.734;8.744;2022-07-09T00:26:32;15.70;99.90
10980;DHT22;5543;51.734;8.744;2022-07-09T00:29:00;15.80;99.90
10980;DHT22;5543;51.734;8.744;2022-07-09T00:31:29;15.80;99.90
10980;DHT22;5543;51.734;8.744;2022-07-09T00:33:57;15.80;99.90
10980;DHT22;5543;51.734;8.744;2022-07-09T00:36:28;15.80;99.90
10980;DHT22;5543;51.734;8.744;2022-07-09T00:38:56;15.90;99.90
10980;DHT22;5543;51.734;8.744;2022-07-09T00:41:26;15.90;99.90
10980;DHT22;5543;51.734;8.744;2022-07-09T00:43:54;15.90;99.90
10980;DHT22;5543;51.734;8.744;2022-07-09T00:46:22;15.90;99.90
10980;DHT22;5543;51.734;8.744;2022-07-09T00:48:51;15.90;99.90
10980;DHT22;5543;51.734;8.744;2022-07-09T00:51:19;15.90;99.90
10980;DHT22;5543;51.734;8.744;2022-07-09T00:53:48;15.80;99.90
10980;DHT22;5543;51.734;8.744;2022-07-09T00:56:17;15.80;99.90
10980;DHT22;5543;51.734;8.744;2022-07-09T00:58:47;15.80;99.90
10980;DHT22;5543;51.734;8.744;2022-07-09T01:01:16;15.70;99.90
10980;DHT22;5543;51.734;8.744;2022-07-09T01:03:44;15.70;99.90
10980;DHT22;5543;51.734;8.744;2022-07-09T01:06:12;15.70;99.90
10980;DHT22;5543;51.734;8.744;2022-07-09T01:08:42;15.70;99.90
10980;DHT22;5543;51.734;8.744;2022-07-09T01:11:10;15.70;99.90
10980;DHT22;5543;51.734;8.744;2022-07-09T01:13:38;15.70;99.90
10980;DHT22;5543;51.734;8.744;2022-07-09T01:16:13;15.70;99.90
10980;DHT22;5543;51.734;8.744;2022-07-09T01:18:43;15.80;99.90
10980;DHT22;5543;51.734;8.744;2022-07-09T01:21:13;15.80;99.90
10980;DHT22;5543;51.734;8.744;2022-07-09T01:23:42;15.80;99.90
10980;DHT22;5543;51.734;8.744;2022-07-09T01:26:10;15.80;99.90
10980;DHT22;5543;51.734;8.744;2022-07-09T01:28:38;15.80;99.90
10980;DHT22;5543;51.734;8.744;2022-07-09T01:31:07;15.80;99.90
10980;DHT22;5543;51.734;8.744;2022-07-09T01:33:35;15.80;99.90
10980;DHT22;5543;51.734;8.744;2022-07-09T01:36:03;15.80;99.90
10980;DHT22;5543;51.734;8.744;2022-07-09T01:38:33;15.70;99.90
10980;DHT22;5543;51.734;8.744;2022-07-09T01:41:02;15.70;99.90
10980;DHT22;5543;51.734;8.744;2022-07-09T01:43:30;15.70;99.90
10980;DHT22;5543;51.734;8.744;2022-07-09T01:46:00;15.70;99.90
10980;DHT22;5543;51.734;8.744;2022-07-09T01:48:28;15.70;99.90
10980;DHT22;5543;51.734;8.744;2022-07-09T01:50:57;15.80;99.90
10980;DHT22;5543;51.734;8.744;2022-07-09T01:53:26;15.80;99.90
10980;DHT22;5543;51.734;8.744;2022-07-09T01:55:55;15.80;99.90
10980;DHT22;5543;51.734;8.744;2022-07-09T01:58:23;15.80;99.90
10980;DHT22;5543;51.734;8.744;2022-07-09T02:00:51;15.80;99.90
10980;DHT22;5543;51.734;8.744;2022-07-09T02:03:20;15.80;99.90
10980;DHT22;5543;51.734;8.744;2022-07-09T02:05:49;15.70;99.90
10980;DHT22;5543;51.734;8.744;2022-07-09T02:08:17;15.70;99.90
10980;DHT22;5543;51.734;8.744;2022-07-09T02:10:45;15.70;99.90
10980;DHT22;5543;51.734;8.744;2022-07-09T02:13:15;15.70;99.90
10980;DHT22;5543;51.734;8.744;2022-07-09T02:15:44;15.70;99.90
10980;DHT22;5543;51.734;8.744;2022-07-09T02:18:12;15.70;99.90
10980;DHT22;5543;51.734;8.744;2022-07-09T02:20:40;15.70;99.90
10980;DHT22;5543;51.734;8.744;2022-07-09T02:23:09;15.70;99.90
10980;DHT22;5543;51.734;8.744;2022-07-09T02:25:37;15.70;99.90
10980;DHT22;5543;51.734;8.744;2022-07-09T02:28:05;15.70;99.90
10980;DHT22;5543;51.734;8.744;2022-07-09T02:30:34;15.70;99.90
10980;DHT22;5543;51.734;8.744;2022-07-09T02:33:04;15.70;99.90
10980;DHT22;5543;51.734;8.744;2022-07-09T02:35:32;15.80;99.90
10980;DHT22;5543;51.734;8.744;2022-07-09T02:38:00;15.80;99.90
10980;DHT22;5543;51.734;8.744;2022-07-09T02:40:28;15.80;99.90
10980;DHT22;5543;51.734;8.744;2022-07-09T02:42:56;15.80;99.90
10980;DHT22;5543;51.734;8.744;2022-07-09T02:45:24;15.90;99.90
10980;DHT22;5543;51.734;8.744;2022-07-09T02:47:54;16.00;99.90
10980;DHT22;5543;51.734;8.744;2022-07-09T02:50:22;16.00;99.90
10980;DHT22;5543;51.734;8.744;2022-07-09T02:52:50;16.10;99.90
10980;DHT22;5543;51.734;8.744;2022-07-09T02:55:19;16.10;99.90
10980;DHT22;5543;51.734;8.744;2022-07-09T02:57:47;16.20;99.90
10980;DHT22;5543;51.734;8.744;2022-07-09T03:00:15;16.20;99.90
10980;DHT22;5543;51.734;8.744;2022-07-09T03:02:43;16.30;99.90
10980;DHT22;5543;51.734;8.744;2022-07-09T03:05:12;16.30;99.90
10980;DHT22;5543;51.734;8.744;2022-07-09T03:07:40;16.30;99.90
10980;DHT22;5543;51.734;8.744;2022-07-09T03:10:09;16.30;99.90
10980;DHT22;5543;51.734;8.744;2022-07-09T03:12:37;16.40;99.90
10980;DHT22;5543;51.734;8.744;2022-07-09T03:15:07;16.40;99.90
10980;DHT22;5543;51.734;8.744;2022-07-09T03:17:35;16.40;99.90
10980;DHT22;5543;51.734;8.744;2022-07-09T03:20:04;16.40;99.90
10980;DHT22;5543;51.734;8.744;2022-07-09T03:22:34;16.50;99.90
10980;DHT22;5543;51.734;8.744;2022-07-09T03:25:04;16.40;99.90
10980;DHT22;5543;51.734;8.744;2022-07-09T03:27:32;16.50;99.90
10980;DHT22;5543;51.734;8.744;2022-07-09T03:30:01;16.50;99.90
10980;DHT22;5543;51.734;8.744;2022-07-09T03:32:30;16.50;99.90
10980;DHT22;5543;51.734;8.744;2022-07-09T03:34:58;16.50;99.90
10980;DHT22;5543;51.734;8.744;2022-07-09T03:37:26;16.50;99.90
10980;DHT22;5543;51.734;8.744;2022-07-09T03:39:56;16.60;99.90
10980;DHT22;5543;51.734;8.744;2022-07-09T03:42:24;16.60;99.90
10980;DHT22;5543;51.734;8.744;2022-07-09T03:44:52;16.60;99.90
10980;DHT22;5543;51.734;8.744;2022-07-09T03:47:20;16.60;99.90
10980;DHT22;5543;51.734;8.744;2022-07-09T03:49:48;16.60;99.90
10980;DHT22;5543;51.734;8.744;2022-07-09T03:52:16;16.70;99.90
10980;DHT22;5543;51.734;8.744;2022-07-09T03:54:48;16.60;99.90
10980;DHT22;5543;51.734;8.744;2022-07-09T03:57:18;16.60;99.90
10980;DHT22;5543;51.734;8.744;2022-07-09T03:59:46;16.60;99.90
10980;DHT22;5543;51.734;8.744;2022-07-09T04:02:14;16.70;99.90
10980;DHT22;5543;51.734;8.744;2022-07-09T04:04:42;16.70;99.90
10980;DHT22;5543;51.734;8.744;2022-07-09T04:07:11;16.70;99.90
10980;DHT22;5543;51.734;8.744;2022-07-09T04:09:39;16.80;99.90
10980;DHT22;5543;51.734;8.744;2022-07-09T04:12:08;16.80;99.90
10980;DHT22;5543;51.734;8.744;2022-07-09T04:14:37;16.80;99.90
10980;DHT22;5543;51.734;8.744;2022-07-09T04:17:05;16.80;99.90
10980;DHT22;5543;51.734;8.744;2022-07-09T04:19:34;16.90;99.90
10980;DHT22;5543;51.734;8.744;2022-07-09T04:22:03;16.90;99.90
10980;DHT22;5543;51.734;8.744;2022-07-09T04:24:31;16.90;99.90
10980;DHT22;5543;51.734;8.744;2022-07-09T04:26:59;17.00;99.90
10980;DHT22;5543;51.734;8.744;2022-07-09T04:29:27;17.00;99.90
10980;DHT22;5543;51.734;8.744;2022-07-09T04:31:56;17.10;99.90
10980;DHT22;5543;51.734;8.744;2022-07-09T04:34:25;17.10;99.90
10980;DHT22;5543;51.734;8.744;2022-07-09T04:36:53;17.10;99.90
10980;DHT22;5543;51.734;8.744;2022-07-09T04:39:21;17.10;99.90
10980;DHT22;5543;51.734;8.744;2022-07-09T04:41:51;17.00;99.90
10980;DHT22;5543;51.734;8.744;2022-07-09T04:44:19;17.10;99.90
10980;DHT22;5543;51.734;8.744;2022-07-09T04:46:47;17.10;99.90
10980;DHT22;5543;51.734;8.744;2022-07-09T04:49:16;17.00;99.90
10980;DHT22;5543;51.734;8.744;2022-07-09T04:51:45;17.00;99.90
10980;DHT22;5543;51.734;8.744;2022-07-09T04:54:13;17.00;99.90
10980;DHT22;5543;51.734;8.744;2022-07-09T04:56:41;17.00;99.90
10980;DHT22;5543;51.734;8.744;2022-07-09T04:59:09;16.80;99.90
10980;DHT22;5543;51.734;8.744;2022-07-09T05:01:37;17.00;99.90
10980;DHT22;5543;51.734;8.744;2022-07-09T05:04:05;17.10;99.90
10980;DHT22;5543;51.734;8.744;2022-07-09T05:06:34;17.20;99.90
10980;DHT22;5543;51.734;8.744;2022-07-09T05:09:03;17.20;99.90
10980;DHT22;5543;51.734;8.744;2022-07-09T05:11:31;17.20;99.90
10980;DHT22;5543;51.734;8.744;2022-07-09T05:13:59;17.30;99.90
10980;DHT22;5543;51.734;8.744;2022-07-09T05:16:27;17.40;99.90
10980;DHT22;5543;51.734;8.744;2022-07-09T05:18:55;17.40;99.90
10980;DHT22;5543;51.734;8.744;2022-07-09T05:21:23;17.40;99.90
10980;DHT22;5543;51.734;8.744;2022-07-09T05:23:53;17.50;99.90
10980;DHT22;5543;51.734;8.744;2022-07-09T05:26:21;17.50;99.90
10980;DHT22;5543;51.734;8.744;2022-07-09T05:28:49;17.60;99.90
10980;DHT22;5543;51.734;8.744;2022-07-09T05:31:17;17.50;99.90
10980;DHT22;5543;51.734;8.744;2022-07-09T05:34:02;17.70;99.90
10980;DHT22;5543;51.734;8.744;2022-07-09T05:36:30;17.80;99.90
10980;DHT22;5543;51.734;8.744;2022-07-09T05:39:00;18.00;99.90
10980;DHT22;5543;51.734;8.744;2022-07-09T05:41:28;18.10;99.90
10980;DHT22;5543;51.734;8.744;2022-07-09T05:43:56;18.00;99.90
10980;DHT22;5543;51.734;8.744;2022-07-09T05:46:24;18.00;99.90
10980;DHT22;5543;51.734;8.744;2022-07-09T05:48:53;17.70;99.90
10980;DHT22;5543;51.734;8.744;2022-07-09T05:51:21;17.90;99.90
10980;DHT22;5543;51.734;8.744;2022-07-09T05:53:49;17.80;99.90
10980;DHT22;5543;51.734;8.744;2022-07-09T05:56:19;17.70;99.90
10980;DHT22;5543;51.734;8.744;2022-07-09T05:58:47;17.80;99.90
10980;DHT22;5543;51.734;8.744;2022-07-09T06:01:15;17.80;99.90
10980;DHT22;5543;51.734;8.744;2022-07-09T06:03:50;17.80;99.90
10980;DHT22;5543;51.734;8.744;2022-07-09T06:06:18;17.80;99.90
10980;DHT22;5543;51.734;8.744;2022-07-09T06:08:46;17.80;99.90
10980;DHT22;5543;51.734;8.744;2022-07-09T06:11:14;18.10;99.90
10980;DHT22;5543;51.734;8.744;2022-07-09T06:13:44;17.70;99.90
10980;DHT22;5543;51.734;8.744;2022-07-09T06:16:12;17.70;99.90
10980;DHT22;5543;51.734;8.744;2022-07-09T06:18:40;17.80;99.90
10980;DHT22;5543;51.734;8.744;2022-07-09T06:21:09;17.70;99.90
10980;DHT22;5543;51.734;8.744;2022-07-09T06:23:37;17.80;99.90
10980;DHT22;5543;51.734;8.744;2022-07-09T06:26:05;17.70;99.90
10980;DHT22;5543;51.734;8.744;2022-07-09T06:28:35;17.80;99.90
10980;DHT22;5543;51.734;8.744;2022-07-09T06:31:05;17.80;99.90
10980;DHT22;5543;51.734;8.744;2022-07-09T06:33:33;17.80;99.90
10980;DHT22;5543;51.734;8.744;2022-07-09T06:36:02;17.70;99.90
10980;DHT22;5543;51.734;8.744;2022-07-09T06:38:30;17.80;99.90
10980;DHT22;5543;51.734;8.744;2022-07-09T06:40:58;18.00;99.90
10980;DHT22;5543;51.734;8.744;2022-07-09T06:43:26;18.10;99.90
10980;DHT22;5543;51.734;8.744;2022-07-09T06:45:55;18.20;99.90
10980;DHT22;5543;51.734;8.744;2022-07-09T06:48:24;18.20;99.90
10980;DHT22;5543;51.734;8.744;2022-07-09T06:50:52;18.20;99.90
10980;DHT22;5543;51.734;8.744;2022-07-09T06:53:20;18.30;99.90
10980;DHT22;5543;51.734;8.744;2022-07-09T06:55:49;18.30;99.90
10980;DHT22;5543;51.734;8.744;2022-07-09T06:58:17;18.20;99.90
10980;DHT22;5543;51.734;8.744;2022-07-09T07:00:45;18.20;99.90
10980;DHT22;5543;51.734;8.744;2022-07-09T07:03:13;18.30;99.90
10980;DHT22;5543;51.734;8.744;2022-07-09T07:05:43;18.30;99.90
10980;DHT22;5543;51.734;8.744;2022-07-09T07:08:12;18.30;99.90
10980;DHT22;5543;51.734;8.744;2022-07-09T07:10:40;18.30;99.90
10980;DHT22;5543;51.734;8.744;2022-07-09T07:13:09;18.30;99.90
10980;DHT22;5543;51.734;8.744;2022-07-09T07:15:37;18.40;99.90
10980;DHT22;5543;51.734;8.744;2022-07-09T07:18:05;18.60;99.90
10980;DHT22;5543;51.734;8.744;2022-07-09T07:20:34;18.70;99.90
10980;DHT22;5543;51.734;8.744;2022-07-09T07:23:03;18.80;99.90
10980;DHT22;5543;51.734;8.744;2022-07-09T07:25:32;18.80;99.90
10980;DHT22;5543;51.734;8.744;2022-07-09T07:28:00;18.90;99.90
10980;DHT22;5543;51.734;8.744;2022-07-09T07:30:29;19.00;99.90
10980;DHT22;5543;51.734;8.744;2022-07-09T07:32:59;19.20;99.90
10980;DHT22;5543;51.734;8.744;2022-07-09T07:35:28;19.40;99.90
10980;DHT22;5543;51.734;8.744;2022-07-09T07:37:56;19.60;99.90
10980;DHT22;5543;51.734;8.744;2022-07-09T07:40:26;19.80;99.90
10980;DHT22;5543;51.734;8.744;2022-07-09T07:42:54;19.80;99.90
10980;DHT22;5543;51.734;8.744;2022-07-09T07:45:22;19.80;99.90
10980;DHT22;5543;51.734;8.744;2022-07-09T07:47:51;20.00;99.90
10980;DHT22;5543;51.734;8.744;2022-07-09T07:50:21;20.20;99.90
10980;DHT22;5543;51.734;8.744;2022-07-09T07:52:49;20.40;99.90
10980;DHT22;5543;51.734;8.744;2022-07-09T07:55:17;20.60;99.90
10980;DHT22;5543;51.734;8.744;2022-07-09T07:57:47;20.60;99.90
10980;DHT22;5543;51.734;8.744;2022-07-09T08:00:15;20.70;99.90
10980;DHT22;5543;51.734;8.744;2022-07-09T08:02:43;20.60;99.90
10980;DHT22;5543;51.734;8.744;2022-07-09T08:05:12;20.60;99.90
10980;DHT22;5543;51.734;8.744;2022-07-09T08:07:41;20.60;99.90
10980;DHT22;5543;51.734;8.744;2022-07-09T08:10:09;20.70;99.90
10980;DHT22;5543;51.734;8.744;2022-07-09T08:12:37;20.80;99.90
10980;DHT22;5543;51.734;8.744;2022-07-09T08:15:08;21.00;99.90
10980;DHT22;5543;51.734;8.744;2022-07-09T08:17:36;21.00;99.90
10980;DHT22;5543;51.734;8.744;2022-07-09T08:20:05;21.10;99.90
10980;DHT22;5543;51.734;8.744;2022-07-09T08:22:33;21.20;99.90
10980;DHT22;5543;51.734;8.744;2022-07-09T08:25:01;21.30;99.90
10980;DHT22;5543;51.734;8.744;2022-07-09T08:27:30;21.20;99.90
10980;DHT22;5543;51.734;8.744;2022-07-09T08:29:58;21.20;99.90
10980;DHT22;5543;51.734;8.744;2022-07-09T08:32:27;21.30;99.90
10980;DHT22;5543;51.734;8.744;2022-07-09T08:34:55;21.30;99.90
10980;DHT22;5543;51.734;8.744;2022-07-09T08:37:23;21.30;99.90
10980;DHT22;5543;51.734;8.744;2022-07-09T08:39:51;21.40;99.90
10980;DHT22;5543;51.734;8.744;2022-07-09T08:42:19;21.60;99.90
10980;DHT22;5543;51.734;8.744;2022-07-09T08:44:48;21.90;99.90
10980;DHT22;5543;51.734;8.744;2022-07-09T08:47:16;22.10;99.90
10980;DHT22;5543;51.734;8.744;2022-07-09T08:49:47;22.10;99.90
10980;DHT22;5543;51.734;8.744;2022-07-09T08:52:16;22.10;99.90
10980;DHT22;5543;51.734;8.744;2022-07-09T08:54:45;22.00;99.90
10980;DHT22;5543;51.734;8.744;2022-07-09T08:57:13;21.90;99.90
10980;DHT22;5543;51.734;8.744;2022-07-09T08:59:42;21.70;99.90
10980;DHT22;5543;51.734;8.744;2022-07-09T09:02:10;21.50;99.90
10980;DHT22;5543;51.734;8.744;2022-07-09T09:04:40;21.20;99.90
10980;DHT22;5543;51.734;8.744;2022-07-09T09:07:15;20.90;99.90
10980;DHT22;5543;51.734;8.744;2022-07-09T09:09:44;20.80;99.90
10980;DHT22;5543;51.734;8.744;2022-07-09T09:12:12;20.60;99.90
10980;DHT22;5543;51.734;8.744;2022-07-09T09:14:48;20.60;99.90
10980;DHT22;5543;51.734;8.744;2022-07-09T09:17:17;20.50;99.90
10980;DHT22;5543;51.734;8.744;2022-07-09T09:19:45;20.40;99.90
10980;DHT22;5543;51.734;8.744;2022-07-09T09:22:16;20.40;99.90
10980;DHT22;5543;51.734;8.744;2022-07-09T09:24:49;20.40;99.90
10980;DHT22;5543;51.734;8.744;2022-07-09T09:27:17;20.40;99.90
10980;DHT22;5543;51.734;8.744;2022-07-09T09:29:49;20.30;99.90
10980;DHT22;5543;51.734;8.744;2022-07-09T09:32:19;20.30;99.90
10980;DHT22;5543;51.734;8.744;2022-07-09T09:34:49;20.20;99.90
10980;DHT22;5543;51.734;8.744;2022-07-09T09:37:28;20.10;99.90
10980;DHT22;5543;51.734;8.744;2022-07-09T09:39:57;20.10;99.90
10980;DHT22;5543;51.734;8.744;2022-07-09T09:42:25;20.20;99.90
10980;DHT22;5543;51.734;8.744;2022-07-09T09:44:57;20.40;99.90
10980;DHT22;5543;51.734;8.744;2022-07-09T09:47:27;20.50;99.90
10980;DHT22;5543;51.734;8.744;2022-07-09T09:49:57;20.50;99.90
10980;DHT22;5543;51.734;8.744;2022-07-09T09:52:28;20.60;99.90
10980;DHT22;5543;51.734;8.744;2022-07-09T09:54:57;20.60;99.90
10980;DHT22;5543;51.734;8.744;2022-07-09T09:57:27;20.60;99.90
10980;DHT22;5543;51.734;8.744;2022-07-09T09:59:56;20.50;99.90
10980;DHT22;5543;51.734;8.744;2022-07-09T10:02:25;20.50;99.90
10980;DHT22;5543;51.734;8.744;2022-07-09T10:04:56;20.50;99.90
10980;DHT22;5543;51.734;8.744;2022-07-09T10:07:25;20.50;99.90
10980;DHT22;5543;51.734;8.744;2022-07-09T10:09:55;20.50;99.90
10980;DHT22;5543;51.734;8.744;2022-07-09T10:12:28;20.60;99.90
10980;DHT22;5543;51.734;8.744;2022-07-09T10:14:57;20.70;99.90
10980;DHT22;5543;51.734;8.744;2022-07-09T10:17:26;20.80;99.90
10980;DHT22;5543;51.734;8.744;2022-07-09T10:19:55;20.90;99.90
10980;DHT22;5543;51.734;8.744;2022-07-09T10:22:34;21.00;99.90
10980;DHT22;5543;51.734;8.744;2022-07-09T10:25:06;21.20;99.90
10980;DHT22;5543;51.734;8.744;2022-07-09T10:27:44;21.40;99.90
10980;DHT22;5543;51.734;8.744;2022-07-09T10:30:23;21.80;99.90
10980;DHT22;5543;51.734;8.744;2022-07-09T10:33:03;22.30;99.90
10980;DHT22;5543;51.734;8.744;2022-07-09T10:35:38;22.60;99.90
10980;DHT22;5543;51.734;8.744;2022-07-09T10:38:06;23.10;99.90
10980;DHT22;5543;51.734;8.744;2022-07-09T10:40:41;23.70;99.80
10980;DHT22;5543;51.734;8.744;2022-07-09T10:43:10;24.40;99.40
10980;DHT22;5543;51.734;8.744;2022-07-09T10:45:39;25.30;97.80
10980;DHT22;5543;51.734;8.744;2022-07-09T10:48:09;25.50;95.70
10980;DHT22;5543;51.734;8.744;2022-07-09T10:50:40;25.50;95.10
10980;DHT22;5543;51.734;8.744;2022-07-09T10:53:08;25.30;94.10
10980;DHT22;5543;51.734;8.744;2022-07-09T10:55:37;25.20;92.30
10980;DHT22;5543;51.734;8.744;2022-07-09T10:58:16;24.80;92.50
10980;DHT22;5543;51.734;8.744;2022-07-09T11:00:44;24.40;93.70
10980;DHT22;5543;51.734;8.744;2022-07-09T11:03:12;24.20;93.50
10980;DHT22;5543;51.734;8.744;2022-07-09T11:05:44;24.20;94.20
10980;DHT22;5543;51.734;8.744;2022-07-09T11:08:13;24.40;94.00
10980;DHT22;5543;51.734;8.744;2022-07-09T11:10:41;24.50;93.30
10980;DHT22;5543;51.734;8.744;2022-07-09T11:13:22;24.20;92.50
10980;DHT22;5543;51.734;8.744;2022-07-09T11:15:58;23.80;94.30
10980;DHT22;5543;51.734;8.744;2022-07-09T11:18:28;23.40;94.40
10980;DHT22;5543;51.734;8.744;2022-07-09T11:20:56;22.90;95.10
10980;DHT22;5543;51.734;8.744;2022-07-09T11:23:24;22.50;95.60
10980;DHT22;5543;51.734;8.744;2022-07-09T11:25:53;22.10;96.50
10980;DHT22;5543;51.734;8.744;2022-07-09T11:28:23;21.60;98.90
10980;DHT22;5543;51.734;8.744;2022-07-09T11:30:59;21.30;99.50
10980;DHT22;5543;51.734;8.744;2022-07-09T11:33:28;21.40;99.90
10980;DHT22;5543;51.734;8.744;2022-07-09T11:36:17;21.90;99.90
10980;DHT22;5543;51.734;8.744;2022-07-09T11:38:47;22.20;99.90
10980;DHT22;5543;51.734;8.744;2022-07-09T11:41:15;22.40;99.90
10980;DHT22;5543;51.734;8.744;2022-07-09T11:43:47;22.30;99.90
10980;DHT22;5543;51.734;8.744;2022-07-09T11:46:16;22.10;99.90
10980;DHT22;5543;51.734;8.744;2022-07-09T11:48:49;21.90;99.90
10980;DHT22;5543;51.734;8.744;2022-07-09T11:51:26;21.60;99.90
10980;DHT22;5543;51.734;8.744;2022-07-09T11:53:55;21.20;99.90
10980;DHT22;5543;51.734;8.744;2022-07-09T11:56:23;20.90;99.90
10980;DHT22;5543;51.734;8.744;2022-07-09T11:58:53;20.70;99.90
10980;DHT22;5543;51.734;8.744;2022-07-09T12:01:23;20.40;99.90
10980;DHT22;5543;51.734;8.744;2022-07-09T12:03:52;20.20;99.90
10980;DHT22;5543;51.734;8.744;2022-07-09T12:06:20;19.90;99.90
10980;DHT22;5543;51.734;8.744;2022-07-09T12:08:58;19.80;99.90
10980;DHT22;5543;51.734;8.744;2022-07-09T12:11:27;19.80;99.90
10980;DHT22;5543;51.734;8.744;2022-07-09T12:13:57;20.00;99.90
10980;DHT22;5543;51.734;8.744;2022-07-09T12:16:25;21.20;99.90
10980;DHT22;5543;51.734;8.744;2022-07-09T12:18:54;23.10;99.90
10980;DHT22;5543;51.734;8.744;2022-07-09T12:21:24;24.90;99.90
10980;DHT22;5543;51.734;8.744;2022-07-09T12:23:52;25.70;97.70
10980;DHT22;5543;51.734;8.744;2022-07-09T12:26:20;25.60;97.30
10980;DHT22;5543;51.734;8.744;2022-07-09T12:28:49;25.30;98.10
10980;DHT22;5543;51.734;8.744;2022-07-09T12:31:25;25.20;97.50
10980;DHT22;5543;51.734;8.744;2022-07-09T12:33:53;25.40;97.50
10980;DHT22;5543;51.734;8.744;2022-07-09T12:36:21;25.90;97.50
10980;DHT22;5543;51.734;8.744;2022-07-09T12:39:09;27.00;95.20
10980;DHT22;5543;51.734;8.744;2022-07-09T12:41:37;28.30;93.50
10980;DHT22;5543;51.734;8.744;2022-07-09T12:44:06;28.60;90.20
10980;DHT22;5543;51.734;8.744;2022-07-09T12:46:35;29.20;88.30
10980;DHT22;5543;51.734;8.744;2022-07-09T12:49:04;29.90;86.80
10980;DHT22;5543;51.734;8.744;2022-07-09T12:51:32;30.30;85.00
10980;DHT22;5543;51.734;8.744;2022-07-09T12:54:00;30.70;78.00
10980;DHT22;5543;51.734;8.744;2022-07-09T12:56:29;31.00;76.40
10980;DHT22;5543;51.734;8.744;2022-07-09T12:59:17;31.30;76.90
10980;DHT22;5543;51.734;8.744;2022-07-09T13:01:47;31.00;74.40
10980;DHT22;5543;51.734;8.744;2022-07-09T13:04:15;31.20;73.20
10980;DHT22;5543;51.734;8.744;2022-07-09T13:06:44;31.10;72.40
10980;DHT22;5543;51.734;8.744;2022-07-09T13:09:12;31.00;71.20
10980;DHT22;5543;51.734;8.744;2022-07-09T13:11:41;31.10;73.90
10980;DHT22;5543;51.734;8.744;2022-07-09T13:14:09;31.10;71.10
10980;DHT22;5543;51.734;8.744;2022-07-09T13:16:37;31.30;72.30
10980;DHT22;5543;51.734;8.744;2022-07-09T13:19:07;31.60;70.90
10980;DHT22;5543;51.734;8.744;2022-07-09T13:21:35;31.30;70.50
10980;DHT22;5543;51.734;8.744;2022-07-09T13:24:03;31.60;69.80
10980;DHT22;5543;51.734;8.744;2022-07-09T13:26:32;31.60;71.20
10980;DHT22;5543;51.734;8.744;2022-07-09T13:29:02;31.60;71.20
10980;DHT22;5543;51.734;8.744;2022-07-09T13:31:30;31.80;70.70
10980;DHT22;5543;51.734;8.744;2022-07-09T13:33:59;32.20;70.00
10980;DHT22;5543;51.734;8.744;2022-07-09T13:36:28;32.50;68.70
10980;DHT22;5543;51.734;8.744;2022-07-09T13:38:57;31.70;65.30
10980;DHT22;5543;51.734;8.744;2022-07-09T13:41:25;30.70;70.10
10980;DHT22;5543;51.734;8.744;2022-07-09T13:43:53;30.20;72.80
10980;DHT22;5543;51.734;8.744;2022-07-09T13:46:21;30.10;72.10
10980;DHT22;5543;51.734;8.744;2022-07-09T13:48:49;30.10;67.50
10980;DHT22;5543;51.734;8.744;2022-07-09T13:51:17;29.60;69.90
10980;DHT22;5543;51.734;8.744;2022-07-09T13:53:47;28.90;70.30
10980;DHT22;5543;51.734;8.744;2022-07-09T13:56:15;28.30;70.10
10980;DHT22;5543;51.734;8.744;2022-07-09T13:58:47;28.00;72.00
10980;DHT22;5543;51.734;8.744;2022-07-09T14:01:15;28.00;72.40
10980;DHT22;5543;51.734;8.744;2022-07-09T14:03:43;28.10;69.70
10980;DHT22;5543;51.734;8.744;2022-07-09T14:06:12;28.30;70.00
10980;DHT22;5543;51.734;8.744;2022-07-09T14:09:01;28.60;72.60
10980;DHT22;5543;51.734;8.744;2022-07-09T14:11:29;28.90;69.10
10980;DHT22;5543;51.734;8.744;2022-07-09T14:13:58;29.50;69.90
10980;DHT22;5543;51.734;8.744;2022-07-09T14:16:27;30.00;69.30
10980;DHT22;5543;51.734;8.744;2022-07-09T14:18:55;30.00;62.10
10980;DHT22;5543;51.734;8.744;2022-07-09T14:21:23;30.00;61.60
10980;DHT22;5543;51.734;8.744;2022-07-09T14:23:51;29.80;60.20
10980;DHT22;5543;51.734;8.744;2022-07-09T14:26:21;29.60;61.20
10980;DHT22;5543;51.734;8.744;2022-07-09T14:28:49;29.30;61.50
10980;DHT22;5543;51.734;8.744;2022-07-09T14:31:17;28.50;63.80
10980;DHT22;5543;51.734;8.744;2022-07-09T14:33:46;28.10;62.80
10980;DHT22;5543;51.734;8.744;2022-07-09T14:36:14;28.00;66.00
10980;DHT22;5543;51.734;8.744;2022-07-09T14:38:42;28.20;62.00
10980;DHT22;5543;51.734;8.744;2022-07-09T14:41:10;28.10;64.10
10980;DHT22;5543;51.734;8.744;2022-07-09T14:43:40;28.40;60.30
10980;DHT22;5543;51.734;8.744;2022-07-09T14:46:08;28.70;62.70
10980;DHT22;5543;51.734;8.744;2022-07-09T14:48:36;28.90;62.30
10980;DHT22;5543;51.734;8.744;2022-07-09T14:51:07;28.80;58.70
10980;DHT22;5543;51.734;8.744;2022-07-09T14:53:35;28.40;60.40
10980;DHT22;5543;51.734;8.744;2022-07-09T14:56:09;27.80;60.20
10980;DHT22;5543;51.734;8.744;2022-07-09T14:58:39;27.40;60.60
10980;DHT22;5543;51.734;8.744;2022-07-09T15:01:07;27.10;60.50
10980;DHT22;5543;51.734;8.744;2022-07-09T15:03:36;27.20;62.20
10980;DHT22;5543;51.734;8.744;2022-07-09T15:06:05;27.20;60.30
10980;DHT22;5543;51.734;8.744;2022-07-09T15:08:33;27.40;63.90
10980;DHT22;5543;51.734;8.744;2022-07-09T15:11:02;27.70;65.00
10980;DHT22;5543;51.734;8.744;2022-07-09T15:13:30;27.60;65.00
10980;DHT22;5543;51.734;8.744;2022-07-09T15:15:59;27.70;63.80
10980;DHT22;5543;51.734;8.744;2022-07-09T15:18:28;27.80;64.10
10980;DHT22;5543;51.734;8.744;2022-07-09T15:20:56;27.90;66.10
10980;DHT22;5543;51.734;8.744;2022-07-09T15:23:24;27.90;64.50
10980;DHT22;5543;51.734;8.744;2022-07-09T15:25:53;27.90;63.30
10980;DHT22;5543;51.734;8.744;2022-07-09T15:28:21;28.00;66.00
10980;DHT22;5543;51.734;8.744;2022-07-09T15:30:49;28.10;64.30
10980;DHT22;5543;51.734;8.744;2022-07-09T15:33:19;28.20;63.40
10980;DHT22;5543;51.734;8.744;2022-07-09T15:35:47;28.00;62.30
10980;DHT22;5543;51.734;8.744;2022-07-09T15:38:15;28.10;63.70
10980;DHT22;5543;51.734;8.744;2022-07-09T15:40:43;27.90;64.20
10980;DHT22;5543;51.734;8.744;2022-07-09T15:43:11;27.60;65.20
10980;DHT22;5543;51.734;8.744;2022-07-09T15:45:42;27.50;66.50
10980;DHT22;5543;51.734;8.744;2022-07-09T15:48:10;27.50;65.00
10980;DHT22;5543;51.734;8.744;2022-07-09T15:50:40;27.40;65.60
10980;DHT22;5543;51.734;8.744;2022-07-09T15:53:08;27.20;67.10
10980;DHT22;5543;51.734;8.744;2022-07-09T15:55:36;27.00;65.40
10980;DHT22;5543;51.734;8.744;2022-07-09T15:58:04;26.80;66.20